TimeCDT,TemperatureF,Dew PointF,Humidity,Sea Level PressureIn,VisibilityMPH,Wind Direction,Wind SpeedMPH,Gust SpeedMPH,PrecipitationIn,Events,Conditions,WindDirDegrees,DateUTC
12:15 AM,35.2,25.7,68,30.15,10.0,NE,4.6,-,N/A,,Clear,40,2013-04-05 05:15:00
12:35 AM,34.7,25.9,70,30.16,10.0,NE,3.5,-,N/A,,Clear,40,2013-04-05 05:35:00
12:55 AM,33.8,25.9,73,30.17,10.0,NNE,3.5,-,N/A,,Clear,30,2013-04-05 05:55:00
1:15 AM,32.4,25.0,74,30.16,10.0,NE,3.5,-,N/A,,Clear,40,2013-04-05 06:15:00
1:35 AM,31.1,25.0,78,30.16,10.0,NE,4.6,-,N/A,,Clear,50,2013-04-05 06:35:00
1:55 AM,32.0,26.1,79,30.16,10.0,NE,4.6,-,N/A,,Clear,40,2013-04-05 06:55:00
2:15 AM,31.1,25.7,80,30.16,10.0,NE,3.5,-,N/A,,Scattered Clouds,40,2013-04-05 07:15:00
2:35 AM,30.9,25.7,81,30.15,10.0,NE,3.5,-,N/A,,Clear,50,2013-04-05 07:35:00
2:55 AM,31.1,25.9,81,30.16,10.0,NE,4.6,-,N/A,,Clear,40,2013-04-05 07:55:00
3:15 AM,28.2,23.9,84,30.16,10.0,Calm,Calm,-,N/A,,Clear,0,2013-04-05 08:15:00
3:35 AM,30.0,25.9,85,30.15,10.0,NE,3.5,-,N/A,,Clear,50,2013-04-05 08:35:00
3:55 AM,30.2,26.1,85,30.16,10.0,Calm,Calm,-,N/A,,Scattered Clouds,0,2013-04-05 08:55:00
4:15 AM,30.7,26.2,83,30.16,10.0,Calm,Calm,-,N/A,,Clear,0,2013-04-05 09:15:00
4:35 AM,30.7,26.1,83,30.16,10.0,ENE,3.5,-,N/A,,Clear,60,2013-04-05 09:35:00
4:55 AM,30.4,26.6,86,30.16,10.0,Calm,Calm,-,N/A,,Scattered Clouds,0,2013-04-05 09:55:00
5:15 AM,32.0,27.3,83,30.15,10.0,East,5.8,-,N/A,,Scattered Clouds,80,2013-04-05 10:15:00
5:35 AM,32.0,27.1,82,30.15,10.0,East,3.5,-,N/A,,Scattered Clouds,80,2013-04-05 10:35:00
5:55 AM,32.0,27.3,83,30.15,10.0,East,3.5,-,N/A,,Scattered Clouds,100,2013-04-05 10:55:00
6:15 AM,32.0,27.7,84,30.15,10.0,East,4.6,-,N/A,,Scattered Clouds,90,2013-04-05 11:15:00
6:35 AM,32.0,27.9,85,30.15,10.0,ESE,8.1,-,N/A,,Clear,120,2013-04-05 11:35:00
6:55 AM,32.0,28.0,85,30.15,10.0,ESE,5.8,-,N/A,,Clear,110,2013-04-05 11:55:00
7:15 AM,32.0,28.2,86,30.15,10.0,ESE,5.8,-,N/A,,Clear,120,2013-04-05 12:15:00
7:35 AM,32.0,28.0,85,30.14,10.0,East,6.9,-,N/A,,Clear,100,2013-04-05 12:35:00
7:55 AM,32.0,28.2,86,30.15,10.0,SE,4.6,-,N/A,,Clear,130,2013-04-05 12:55:00
8:15 AM,33.4,29.5,85,30.15,10.0,SE,9.2,-,N/A,,Clear,140,2013-04-05 13:15:00
8:35 AM,33.8,28.9,82,30.13,10.0,ESE,9.2,-,N/A,,Scattered Clouds,120,2013-04-05 13:35:00
8:55 AM,35.4,29.1,78,30.13,10.0,SE,12.7,-,N/A,,Scattered Clouds,130,2013-04-05 13:55:00
9:15 AM,36.7,28.4,72,30.12,10.0,SE,13.8,20.7,N/A,,Clear,130,2013-04-05 14:15:00
9:35 AM,37.8,28.6,69,30.11,10.0,SE,13.8,17.3,N/A,,Mostly Cloudy,130,2013-04-05 14:35:00
9:55 AM,38.8,28.9,68,30.10,10.0,SE,13.8,-,N/A,,Scattered Clouds,140,2013-04-05 14:55:00
10:15 AM,40.3,29.1,64,30.08,10.0,SE,18.4,-,N/A,,Scattered Clouds,140,2013-04-05 15:15:00
10:35 AM,42.4,29.7,61,30.07,10.0,SSE,20.7,-,N/A,,Scattered Clouds,150,2013-04-05 15:35:00
10:55 AM,43.5,29.7,58,30.06,10.0,SE,18.4,23.0,N/A,,Scattered Clouds,140,2013-04-05 15:55:00
11:15 AM,44.6,29.5,55,30.05,10.0,SE,20.7,-,N/A,,Scattered Clouds,140,2013-04-05 16:15:00
11:35 AM,47.5,29.8,50,30.04,10.0,SSE,20.7,26.5,N/A,,Scattered Clouds,150,2013-04-05 16:35:00
11:55 AM,50.2,30.2,46,30.03,10.0,SSE,23.0,-,N/A,,Scattered Clouds,160,2013-04-05 16:55:00
12:15 PM,50.9,29.8,44,30.01,10.0,SSE,20.7,31.1,N/A,,Scattered Clouds,160,2013-04-05 17:15:00
12:35 PM,53.4,30.2,41,30.00,10.0,South,24.2,33.4,N/A,,Scattered Clouds,170,2013-04-05 17:35:00
12:55 PM,55.2,30.6,39,29.98,10.0,SSE,26.5,32.2,N/A,,Clear,160,2013-04-05 17:55:00
1:15 PM,57.4,30.6,36,29.95,10.0,SSE,25.3,34.5,N/A,,Clear,160,2013-04-05 18:15:00
1:35 PM,57.7,31.1,36,29.92,10.0,SSE,27.6,33.4,N/A,,Clear,150,2013-04-05 18:35:00
1:55 PM,60.1,31.8,34,29.91,10.0,SSE,26.5,32.2,N/A,,Scattered Clouds,160,2013-04-05 18:55:00
2:15 PM,61.3,31.6,33,29.89,10.0,SSE,27.6,34.5,N/A,,Clear,160,2013-04-05 19:15:00
2:35 PM,62.4,32.0,32,29.88,10.0,South,26.5,34.5,N/A,,Clear,170,2013-04-05 19:35:00
2:55 PM,62.4,32.0,32,29.85,10.0,SSE,26.5,33.4,N/A,,Clear,160,2013-04-05 19:55:00
3:15 PM,64.8,32.4,30,29.84,10.0,South,28.8,34.5,N/A,,Clear,170,2013-04-05 20:15:00
3:35 PM,64.0,32.0,30,29.82,10.0,South,25.3,34.5,N/A,,Clear,170,2013-04-05 20:35:00
3:55 PM,64.2,32.7,31,29.81,10.0,South,24.2,34.5,N/A,,Clear,170,2013-04-05 20:55:00
4:15 PM,64.4,33.3,31,29.80,10.0,South,24.2,33.4,N/A,,Clear,170,2013-04-05 21:15:00
4:35 PM,64.2,33.4,32,29.78,10.0,SSE,27.6,34.5,N/A,,Clear,160,2013-04-05 21:35:00
4:55 PM,64.6,33.8,32,29.76,10.0,SSE,24.2,32.2,N/A,,Clear,160,2013-04-05 21:55:00
5:15 PM,65.3,33.8,31,29.76,10.0,SSE,21.9,27.6,N/A,,Clear,160,2013-04-05 22:15:00
5:35 PM,65.5,34.5,32,29.76,10.0,SSE,19.6,25.3,N/A,,Clear,160,2013-04-05 22:35:00
5:55 PM,65.3,34.7,32,29.74,10.0,SSE,15.0,23.0,N/A,,Clear,150,2013-04-05 22:55:00
6:15 PM,65.7,34.9,32,29.73,10.0,SSE,17.3,-,N/A,,Clear,150,2013-04-05 23:15:00
6:35 PM,68.0,30.2,24,29.73,10.0,South,23.0,28.8,N/A,,Clear,180,2013-04-05 23:35:00
6:55 PM,67.5,29.7,24,29.71,10.0,South,20.7,-,N/A,,Clear,180,2013-04-05 23:55:00
7:15 PM,66.6,30.0,26,29.71,10.0,South,18.4,-,N/A,,Clear,180,2013-04-06 00:15:00
7:35 PM,65.8,30.0,26,29.69,10.0,South,17.3,23.0,N/A,,Clear,170,2013-04-06 00:35:00
7:55 PM,64.8,30.2,27,29.69,10.0,South,20.7,-,N/A,,Clear,170,2013-04-06 00:55:00
8:15 PM,64.6,30.7,28,29.68,10.0,South,19.6,26.5,N/A,,Clear,170,2013-04-06 01:15:00
8:35 PM,63.5,31.1,30,29.69,10.0,South,16.1,-,N/A,,Clear,180,2013-04-06 01:35:00
8:55 PM,61.2,31.5,33,29.69,10.0,South,13.8,-,N/A,,Clear,180,2013-04-06 01:55:00
9:15 PM,61.7,31.5,32,29.69,10.0,South,17.3,-,N/A,,Clear,180,2013-04-06 02:15:00
9:35 PM,61.7,31.8,33,29.69,10.0,South,20.7,27.6,N/A,,Clear,180,2013-04-06 02:35:00
9:55 PM,60.1,32.0,35,29.69,10.0,South,17.3,-,N/A,,Clear,180,2013-04-06 02:55:00
10:15 PM,58.3,32.7,38,29.68,10.0,South,16.1,-,N/A,,Clear,180,2013-04-06 03:15:00
10:35 PM,58.3,33.1,39,29.68,10.0,South,16.1,-,N/A,,Clear,180,2013-04-06 03:35:00
10:55 PM,58.6,33.1,38,29.67,10.0,South,17.3,23.0,N/A,,Clear,180,2013-04-06 03:55:00
11:15 PM,58.1,33.3,39,29.66,10.0,South,17.3,-,N/A,,Clear,180,2013-04-06 04:15:00
11:35 PM,58.8,33.8,39,29.66,10.0,South,19.6,26.5,N/A,,Clear,190,2013-04-06 04:35:00
11:55 PM,57.9,34.0,41,29.65,10.0,South,13.8,-,N/A,,Clear,190,2013-04-06 04:55:00